Tefé Airport
SBTF : now visible

Airfield :











YOU CAN JOIN US ON...

 
LOGIN :

Register | Disclaimer

   EN    FR    IT 

 









Legend :    VFR   Marginal VFR   IFR   Intensive IFR   Very Intensive IFR
Visi :
Ceiling :
>= 8 km
>= 3000ft
5 to 8 km
1000 to 3000 ft
1500m to 5 km
500 to 1000 ft
800 to 1500m
200 to 500 ft
< 800m
< 200 ft
Symbols :   Thunderstorms  Fog  Heavy snow  Heavy precipitations  Wind > 20 kt






- Airport Elevation : 188 ft
- IATA code : TFF


SBTF - Tefé

CURRENT METAR :
  • 051600Z 05005KT 9999 SCT018 FEW025TCU 28/25 Q1011

EXPIRED METARs :
  • 051500Z 05006KT 9999 SCT017 30/26 Q1012
  • 051400Z 07005KT 9999 FEW016 29/27 Q1013

TAF TAF SBTF
Valid from the 05 at 12:00 until the 06 at 00:00 UTC


050930Z 0512/0524 04005KT 9999 SCT020 TX31/0518Z TN25/0524Z
BECMG 0512/0514 06005KT
BECMG 0518/0520 02005KT RMK PGW



MET'MAP, your aeronautical weather chart ! - Copyright ORBIFLY December 2007 - Disclaimer

ORBIFLY MET'MAP TEAM :

Programming & Development : Alexandra Zaïnal
Concept & original design : Baudouin d'Aumeries
Assistance for programming : Marc-Olivier Méhu
Technical & hardware support : Manuel Goepfert

Contact : metmap@orbifly.com




SOURCES & CREDITS :

   NOAA       Earth
Advisory